Accueil
METAR-TAF:

METAR-TAF

Aéroports :

Base aérienne 126 Solenzara

Solenzara, France

latitude: 41-55N, longitude: 009-24E, altitude: 8 m

Observation

Le bulletin a été fait il y a 25 minutes, à 19:00 UTC
Vent 3 kt de ouest/nord-ouest, variant entre ouest et nord-ouest
Température 19°C
Humidité 94%
Pression 1018 hPa
Visibilité 10 km ou plus
pas de nuages en-dessous de 1500 mètres et pas de cumulonimbus.

METAR: LFKS 191900Z AUTO 29003KT 260V320 CAVOK 19/18 Q1018

Heure: 21:25 (19:25 UTC)

Prévision

Le bulletin a été fait il y a 11 heures et 25 minutes, à 08:00 UTC
Prévision valable du 19 à 09 UTC au 20 à 09 UTC
Vent 5 kt de nord
Visibilité 10 km ou plus
Quelques nuages à une hauteur de 4500 ft

TAF: LFKS 190800Z 1909/2009 01005KT 9999 FEW045

Observations et prévisions météorologiques de plus de 4000 aéroports (messages METAR et TAF).

Les stations disponibles sont représentées par des disques jaunes et rouges sur la carte.

Passer la souris dessus pour voir le nom de la station.

Cliquer dessus pour voir les observations et prévisions météorologiques.

Pour changer de carte: cliquez sur les boutons verts avec une croix noire pour zoomer, sur le bouton vert avec un tiret pour effectuer un zoom arrière, ou sur les flèches vertes pour les cartes adjacentes.


METAR-TAF: